sensor_id;sensor_type;location;lat;lon;timestamp;pressure;altitude;pressure_sealevel;temperature;humidity
62124;BME280;48110;47.532;19.078;2023-07-28T00:01:48;99981.03;;;18.09;99.20
62124;BME280;48110;47.532;19.078;2023-07-28T00:04:51;99986.53;;;18.14;100.00
62124;BME280;48110;47.532;19.078;2023-07-28T00:07:54;99987.91;;;18.05;100.00
62124;BME280;48110;47.532;19.078;2023-07-28T00:10:57;99981.09;;;18.02;100.00
62124;BME280;48110;47.532;19.078;2023-07-28T00:13:59;99988.09;;;18.03;100.00
62124;BME280;48110;47.532;19.078;2023-07-28T00:17:03;99971.78;;;18.05;100.00
62124;BME280;48110;47.532;19.078;2023-07-28T00:20:06;99969.53;;;18.02;100.00
62124;BME280;48110;47.532;19.078;2023-07-28T00:23:11;99970.13;;;18.04;100.00
62124;BME280;48110;47.532;19.078;2023-07-28T00:26:14;99964.78;;;18.04;100.00
62124;BME280;48110;47.532;19.078;2023-07-28T00:29:17;99972.59;;;18.05;100.00
62124;BME280;48110;47.532;19.078;2023-07-28T00:32:20;99972.53;;;17.94;100.00
62124;BME280;48110;47.532;19.078;2023-07-28T00:35:23;99968.66;;;17.90;100.00
62124;BME280;48110;47.532;19.078;2023-07-28T00:38:27;99973.28;;;17.83;100.00
62124;BME280;48110;47.532;19.078;2023-07-28T00:41:31;99963.22;;;17.78;100.00
62124;BME280;48110;47.532;19.078;2023-07-28T00:44:34;99960.19;;;17.74;100.00
62124;BME280;48110;47.532;19.078;2023-07-28T00:47:38;99962.66;;;17.76;100.00
62124;BME280;48110;47.532;19.078;2023-07-28T00:50:46;99959.72;;;17.77;100.00
62124;BME280;48110;47.532;19.078;2023-07-28T00:53:50;99954.28;;;17.84;100.00
62124;BME280;48110;47.532;19.078;2023-07-28T00:56:55;99949.22;;;17.94;100.00
62124;BME280;48110;47.532;19.078;2023-07-28T01:00:00;99954.50;;;18.01;100.00
62124;BME280;48110;47.532;19.078;2023-07-28T01:03:03;99958.44;;;17.98;100.00
62124;BME280;48110;47.532;19.078;2023-07-28T01:06:44;99956.03;;;18.08;100.00
62124;BME280;48110;47.532;19.078;2023-07-28T01:09:56;99954.03;;;18.04;100.00
62124;BME280;48110;47.532;19.078;2023-07-28T01:12:59;99954.38;;;18.07;100.00
62124;BME280;48110;47.532;19.078;2023-07-28T01:16:02;99953.63;;;18.18;100.00
62124;BME280;48110;47.532;19.078;2023-07-28T01:19:06;99946.81;;;18.34;100.00
62124;BME280;48110;47.532;19.078;2023-07-28T01:26:04;99958.59;;;18.63;96.02
62124;BME280;48110;47.532;19.078;2023-07-28T01:29:09;99961.50;;;18.61;97.00
62124;BME280;48110;47.532;19.078;2023-07-28T01:32:14;99950.88;;;18.66;98.09
62124;BME280;48110;47.532;19.078;2023-07-28T01:35:17;99943.88;;;18.65;99.47
62124;BME280;48110;47.532;19.078;2023-07-28T01:38:20;99944.12;;;18.46;100.00
62124;BME280;48110;47.532;19.078;2023-07-28T01:41:22;99944.25;;;18.39;100.00
62124;BME280;48110;47.532;19.078;2023-07-28T01:44:25;99945.97;;;18.34;100.00
62124;BME280;48110;47.532;19.078;2023-07-28T01:47:28;99952.47;;;18.26;100.00
62124;BME280;48110;47.532;19.078;2023-07-28T01:50:32;99939.75;;;18.21;100.00
62124;BME280;48110;47.532;19.078;2023-07-28T01:53:34;99943.03;;;18.23;100.00
62124;BME280;48110;47.532;19.078;2023-07-28T01:56:37;99947.56;;;18.23;100.00
62124;BME280;48110;47.532;19.078;2023-07-28T01:59:40;99947.09;;;18.14;100.00
62124;BME280;48110;47.532;19.078;2023-07-28T02:02:43;99947.09;;;18.14;100.00
62124;BME280;48110;47.532;19.078;2023-07-28T02:05:47;99943.09;;;18.17;100.00
62124;BME280;48110;47.532;19.078;2023-07-28T02:08:49;99944.69;;;18.06;100.00
62124;BME280;48110;47.532;19.078;2023-07-28T02:11:53;99938.97;;;18.03;100.00
62124;BME280;48110;47.532;19.078;2023-07-28T02:14:55;99944.94;;;18.05;100.00
62124;BME280;48110;47.532;19.078;2023-07-28T02:17:58;99944.19;;;17.98;100.00
62124;BME280;48110;47.532;19.078;2023-07-28T02:21:01;99940.00;;;18.02;100.00
62124;BME280;48110;47.532;19.078;2023-07-28T02:24:04;99935.25;;;18.04;100.00
62124;BME280;48110;47.532;19.078;2023-07-28T02:27:07;99934.28;;;17.98;100.00
62124;BME280;48110;47.532;19.078;2023-07-28T02:30:10;99933.91;;;17.95;100.00
62124;BME280;48110;47.532;19.078;2023-07-28T02:33:13;99945.22;;;17.97;100.00
62124;BME280;48110;47.532;19.078;2023-07-28T02:36:16;99937.03;;;17.92;100.00
62124;BME280;48110;47.532;19.078;2023-07-28T02:39:19;99937.84;;;17.92;100.00
62124;BME280;48110;47.532;19.078;2023-07-28T02:42:23;99936.22;;;17.91;100.00
62124;BME280;48110;47.532;19.078;2023-07-28T02:45:27;99928.62;;;17.88;100.00
62124;BME280;48110;47.532;19.078;2023-07-28T02:48:30;99920.94;;;17.92;100.00
62124;BME280;48110;47.532;19.078;2023-07-28T02:51:33;99931.66;;;17.92;100.00
62124;BME280;48110;47.532;19.078;2023-07-28T02:54:37;99936.34;;;17.96;100.00
62124;BME280;48110;47.532;19.078;2023-07-28T02:57:40;99935.09;;;17.99;100.00
62124;BME280;48110;47.532;19.078;2023-07-28T03:00:45;99932.19;;;18.00;100.00
62124;BME280;48110;47.532;19.078;2023-07-28T03:03:49;99938.59;;;17.99;100.00
62124;BME280;48110;47.532;19.078;2023-07-28T03:06:52;99936.00;;;17.93;100.00
62124;BME280;48110;47.532;19.078;2023-07-28T03:09:56;99933.41;;;17.86;100.00
62124;BME280;48110;47.532;19.078;2023-07-28T03:13:00;99922.81;;;17.91;100.00
62124;BME280;48110;47.532;19.078;2023-07-28T03:16:03;99922.72;;;17.98;100.00
62124;BME280;48110;47.532;19.078;2023-07-28T03:19:07;99919.22;;;17.97;100.00
62124;BME280;48110;47.532;19.078;2023-07-28T03:22:10;99924.22;;;17.94;100.00
62124;BME280;48110;47.532;19.078;2023-07-28T03:25:13;99926.91;;;17.94;100.00
62124;BME280;48110;47.532;19.078;2023-07-28T03:28:16;99933.19;;;17.88;100.00
62124;BME280;48110;47.532;19.078;2023-07-28T03:31:20;99926.31;;;17.92;100.00
62124;BME280;48110;47.532;19.078;2023-07-28T03:34:23;99909.28;;;17.86;100.00
62124;BME280;48110;47.532;19.078;2023-07-28T03:37:27;99901.16;;;17.74;100.00
62124;BME280;48110;47.532;19.078;2023-07-28T03:40:30;99899.28;;;17.75;100.00
62124;BME280;48110;47.532;19.078;2023-07-28T03:43:33;99907.25;;;17.81;100.00
62124;BME280;48110;47.532;19.078;2023-07-28T03:46:36;99926.25;;;17.80;100.00
62124;BME280;48110;47.532;19.078;2023-07-28T03:49:39;99930.59;;;17.81;100.00
62124;BME280;48110;47.532;19.078;2023-07-28T03:52:42;99925.37;;;17.86;100.00
62124;BME280;48110;47.532;19.078;2023-07-28T03:55:45;99926.97;;;17.87;100.00
62124;BME280;48110;47.532;19.078;2023-07-28T03:58:48;99925.06;;;17.94;100.00
62124;BME280;48110;47.532;19.078;2023-07-28T04:01:51;99930.56;;;17.99;100.00
62124;BME280;48110;47.532;19.078;2023-07-28T04:04:56;99934.19;;;18.05;100.00
62124;BME280;48110;47.532;19.078;2023-07-28T04:07:59;99926.59;;;18.02;100.00
62124;BME280;48110;47.532;19.078;2023-07-28T04:11:02;99939.44;;;18.00;100.00
62124;BME280;48110;47.532;19.078;2023-07-28T04:14:06;99937.09;;;18.03;100.00
62124;BME280;48110;47.532;19.078;2023-07-28T04:17:09;99938.50;;;18.06;100.00
62124;BME280;48110;47.532;19.078;2023-07-28T04:20:14;99945.66;;;18.12;100.00
62124;BME280;48110;47.532;19.078;2023-07-28T04:23:17;99946.41;;;18.19;100.00
62124;BME280;48110;47.532;19.078;2023-07-28T04:26:20;99942.22;;;18.23;100.00
62124;BME280;48110;47.532;19.078;2023-07-28T04:29:24;99950.63;;;18.27;100.00
62124;BME280;48110;47.532;19.078;2023-07-28T04:32:28;99945.25;;;18.27;100.00
62124;BME280;48110;47.532;19.078;2023-07-28T04:35:32;99932.66;;;18.27;100.00
62124;BME280;48110;47.532;19.078;2023-07-28T04:38:35;99938.50;;;18.36;100.00
62124;BME280;48110;47.532;19.078;2023-07-28T04:41:39;99932.44;;;18.40;100.00
62124;BME280;48110;47.532;19.078;2023-07-28T04:44:41;99933.19;;;18.47;100.00
62124;BME280;48110;47.532;19.078;2023-07-28T04:47:45;99934.72;;;18.55;98.95
62124;BME280;48110;47.532;19.078;2023-07-28T04:50:48;99923.09;;;18.73;97.12
62124;BME280;48110;47.532;19.078;2023-07-28T04:53:51;99920.88;;;18.81;94.67
62124;BME280;48110;47.532;19.078;2023-07-28T04:56:57;99910.03;;;18.88;96.10
62124;BME280;48110;47.532;19.078;2023-07-28T05:00:01;99908.38;;;18.87;90.88
62124;BME280;48110;47.532;19.078;2023-07-28T05:03:04;99913.66;;;19.05;92.43
62124;BME280;48110;47.532;19.078;2023-07-28T05:06:09;99916.44;;;19.10;93.59
62124;BME280;48110;47.532;19.078;2023-07-28T05:09:12;99921.00;;;19.21;90.26
62124;BME280;48110;47.532;19.078;2023-07-28T05:12:15;99929.53;;;19.30;90.80
62124;BME280;48110;47.532;19.078;2023-07-28T05:15:18;99935.41;;;19.50;87.63
62124;BME280;48110;47.532;19.078;2023-07-28T05:18:21;99927.22;;;19.45;87.70
62124;BME280;48110;47.532;19.078;2023-07-28T05:21:25;99923.34;;;19.41;87.01
62124;BME280;48110;47.532;19.078;2023-07-28T05:24:28;99912.88;;;19.68;87.13
62124;BME280;48110;47.532;19.078;2023-07-28T05:27:31;99907.59;;;19.73;85.97
62124;BME280;48110;47.532;19.078;2023-07-28T05:30:34;99905.62;;;19.68;90.47
62124;BME280;48110;47.532;19.078;2023-07-28T05:33:40;99904.53;;;19.81;85.38
62124;BME280;48110;47.532;19.078;2023-07-28T05:36:52;99917.22;;;19.69;84.56
62124;BME280;48110;47.532;19.078;2023-07-28T05:39:55;99922.94;;;20.01;84.20
62124;BME280;48110;47.532;19.078;2023-07-28T05:42:58;99927.63;;;20.05;80.82
62124;BME280;48110;47.532;19.078;2023-07-28T05:46:01;99925.31;;;20.25;78.66
62124;BME280;48110;47.532;19.078;2023-07-28T05:49:05;99935.53;;;20.23;77.09
62124;BME280;48110;47.532;19.078;2023-07-28T05:52:08;99939.47;;;20.32;75.71
62124;BME280;48110;47.532;19.078;2023-07-28T05:55:11;99950.38;;;20.26;76.74
62124;BME280;48110;47.532;19.078;2023-07-28T05:58:14;99954.13;;;20.25;76.62
62124;BME280;48110;47.532;19.078;2023-07-28T06:01:18;99961.97;;;20.26;77.77
62124;BME280;48110;47.532;19.078;2023-07-28T06:04:25;99955.53;;;20.27;77.67
62124;BME280;48110;47.532;19.078;2023-07-28T06:07:28;99966.94;;;20.46;74.92
62124;BME280;48110;47.532;19.078;2023-07-28T06:10:31;99967.03;;;20.51;74.20
62124;BME280;48110;47.532;19.078;2023-07-28T06:13:34;99966.38;;;20.61;73.23
62124;BME280;48110;47.532;19.078;2023-07-28T06:16:37;99963.59;;;20.56;71.44
62124;BME280;48110;47.532;19.078;2023-07-28T06:19:40;99965.25;;;20.57;71.51
62124;BME280;48110;47.532;19.078;2023-07-28T06:22:43;99970.06;;;20.88;70.25
62124;BME280;48110;47.532;19.078;2023-07-28T06:25:46;99966.88;;;21.08;69.04
62124;BME280;48110;47.532;19.078;2023-07-28T06:28:49;99969.44;;;21.31;68.38
62124;BME280;48110;47.532;19.078;2023-07-28T06:31:52;99962.81;;;21.22;67.42
62124;BME280;48110;47.532;19.078;2023-07-28T06:34:55;99963.34;;;21.41;67.15
62124;BME280;48110;47.532;19.078;2023-07-28T06:41:03;99957.97;;;21.41;68.50
62124;BME280;48110;47.532;19.078;2023-07-28T06:44:06;99964.28;;;21.13;67.10
62124;BME280;48110;47.532;19.078;2023-07-28T06:47:11;99960.03;;;21.17;71.65
62124;BME280;48110;47.532;19.078;2023-07-28T06:50:15;99958.38;;;21.49;68.99
62124;BME280;48110;47.532;19.078;2023-07-28T06:53:18;99958.91;;;21.51;68.02
62124;BME280;48110;47.532;19.078;2023-07-28T06:56:21;99957.88;;;21.74;68.25
62124;BME280;48110;47.532;19.078;2023-07-28T07:46:25;99907.44;;;23.81;56.87
62124;BME280;48110;47.532;19.078;2023-07-28T07:49:28;99907.44;;;23.81;56.87
62124;BME280;48110;47.532;19.078;2023-07-28T07:52:30;99916.28;;;23.56;59.58
62124;BME280;48110;47.532;19.078;2023-07-28T07:55:33;99913.66;;;23.71;56.60
62124;BME280;48110;47.532;19.078;2023-07-28T07:58:36;99898.41;;;23.55;56.66
62124;BME280;48110;47.532;19.078;2023-07-28T08:01:39;99904.25;;;24.04;55.26
62124;BME280;48110;47.532;19.078;2023-07-28T08:04:42;99910.56;;;24.40;57.24
62124;BME280;48110;47.532;19.078;2023-07-28T08:07:45;99918.19;;;24.43;54.80
62124;BME280;48110;47.532;19.078;2023-07-28T08:10:50;99915.13;;;24.14;57.20
62124;BME280;48110;47.532;19.078;2023-07-28T08:13:53;99921.41;;;24.40;53.71
62124;BME280;48110;47.532;19.078;2023-07-28T08:16:56;99921.94;;;24.27;54.73
62124;BME280;48110;47.532;19.078;2023-07-28T08:19:58;99926.31;;;24.33;57.37
62124;BME280;48110;47.532;19.078;2023-07-28T08:23:01;99923.06;;;24.41;56.49
62124;BME280;48110;47.532;19.078;2023-07-28T08:26:04;99921.16;;;24.47;54.13
62124;BME280;48110;47.532;19.078;2023-07-28T08:29:07;99924.16;;;24.55;54.29
62124;BME280;48110;47.532;19.078;2023-07-28T08:32:09;99921.44;;;24.50;52.99
62124;BME280;48110;47.532;19.078;2023-07-28T08:35:12;99920.88;;;24.33;52.96
62124;BME280;48110;47.532;19.078;2023-07-28T08:38:15;99912.13;;;24.06;53.93
62124;BME280;48110;47.532;19.078;2023-07-28T08:41:19;99899.97;;;24.18;57.66
62124;BME280;48110;47.532;19.078;2023-07-28T08:44:22;99904.34;;;24.50;55.69
62124;BME280;48110;47.532;19.078;2023-07-28T08:47:25;99891.91;;;24.59;53.70
62124;BME280;48110;47.532;19.078;2023-07-28T08:50:27;99883.44;;;26.34;50.08
62124;BME280;48110;47.532;19.078;2023-07-28T08:53:30;99891.28;;;27.75;46.82
62124;BME280;48110;47.532;19.078;2023-07-28T08:56:33;99881.78;;;28.15;43.98
62124;BME280;48110;47.532;19.078;2023-07-28T08:59:36;99878.13;;;28.89;43.65
62124;BME280;48110;47.532;19.078;2023-07-28T09:02:44;99872.81;;;29.66;40.16
62124;BME280;48110;47.532;19.078;2023-07-28T09:05:48;99864.72;;;29.48;40.87
62124;BME280;48110;47.532;19.078;2023-07-28T09:08:50;99865.72;;;30.15;39.34
62124;BME280;48110;47.532;19.078;2023-07-28T09:11:54;99859.91;;;28.85;40.64
62124;BME280;48110;47.532;19.078;2023-07-28T09:14:56;99866.19;;;30.17;38.30
62124;BME280;48110;47.532;19.078;2023-07-28T09:18:00;99855.97;;;30.45;38.01
62124;BME280;48110;47.532;19.078;2023-07-28T09:21:03;99861.16;;;30.46;38.13
62124;BME280;48110;47.532;19.078;2023-07-28T09:24:07;99849.28;;;30.82;37.58
62124;BME280;48110;47.532;19.078;2023-07-28T09:27:23;99866.38;;;31.58;36.00
62124;BME280;48110;47.532;19.078;2023-07-28T09:30:27;99866.28;;;31.88;34.98
62124;BME280;48110;47.532;19.078;2023-07-28T09:33:30;99870.41;;;31.52;36.04
62124;BME280;48110;47.532;19.078;2023-07-28T09:36:37;99878.28;;;32.18;34.78
62124;BME280;48110;47.532;19.078;2023-07-28T09:39:40;99869.06;;;32.31;35.03
62124;BME280;48110;47.532;19.078;2023-07-28T09:42:45;99867.75;;;31.95;34.94
62124;BME280;48110;47.532;19.078;2023-07-28T09:45:56;99863.22;;;31.90;36.30
62124;BME280;48110;47.532;19.078;2023-07-28T09:49:04;99867.06;;;31.32;37.27
62124;BME280;48110;47.532;19.078;2023-07-28T09:52:10;99868.41;;;32.26;35.22
62124;BME280;48110;47.532;19.078;2023-07-28T09:55:14;99866.28;;;32.66;34.49
62124;BME280;48110;47.532;19.078;2023-07-28T09:58:19;99862.13;;;32.17;34.94
62124;BME280;48110;47.532;19.078;2023-07-28T10:01:25;99847.22;;;32.44;34.73
62124;BME280;48110;47.532;19.078;2023-07-28T10:04:29;99847.25;;;32.09;35.46
62124;BME280;48110;47.532;19.078;2023-07-28T10:07:38;99838.63;;;31.50;36.99
62124;BME280;48110;47.532;19.078;2023-07-28T10:10:43;99841.78;;;32.99;35.32
62124;BME280;48110;47.532;19.078;2023-07-28T10:13:46;99843.06;;;34.10;33.29
62124;BME280;48110;47.532;19.078;2023-07-28T10:16:50;99846.84;;;34.59;32.29
62124;BME280;48110;47.532;19.078;2023-07-28T10:19:53;99838.84;;;34.33;32.48
62124;BME280;48110;47.532;19.078;2023-07-28T10:23:03;99831.63;;;33.87;33.40
62124;BME280;48110;47.532;19.078;2023-07-28T10:26:06;99823.31;;;34.62;32.41
62124;BME280;48110;47.532;19.078;2023-07-28T10:29:14;99841.37;;;35.28;31.98
62124;BME280;48110;47.532;19.078;2023-07-28T10:32:28;99839.50;;;34.63;32.90
62124;BME280;48110;47.532;19.078;2023-07-28T10:35:46;99835.69;;;34.88;30.89
62124;BME280;48110;47.532;19.078;2023-07-28T10:42:10;99833.87;;;33.35;32.67
62124;BME280;48110;47.532;19.078;2023-07-28T10:45:13;99836.22;;;34.16;32.24
62124;BME280;48110;47.532;19.078;2023-07-28T10:48:16;99835.44;;;33.15;33.10
62124;BME280;48110;47.532;19.078;2023-07-28T10:51:23;99829.47;;;31.81;34.84
62124;BME280;48110;47.532;19.078;2023-07-28T10:54:28;99828.16;;;32.56;34.41
62124;BME280;48110;47.532;19.078;2023-07-28T10:57:35;99841.75;;;34.37;32.27
62124;BME280;48110;47.532;19.078;2023-07-28T11:00:38;99835.00;;;34.46;31.79
62124;BME280;48110;47.532;19.078;2023-07-28T11:03:41;99827.28;;;34.40;31.84
62124;BME280;48110;47.532;19.078;2023-07-28T11:06:47;99833.37;;;34.45;31.86
62124;BME280;48110;47.532;19.078;2023-07-28T11:09:50;99822.16;;;35.20;30.85
62124;BME280;48110;47.532;19.078;2023-07-28T11:12:53;99827.84;;;36.71;29.35
62124;BME280;48110;47.532;19.078;2023-07-28T11:15:57;99828.03;;;36.35;29.65
62124;BME280;48110;47.532;19.078;2023-07-28T11:19:09;99824.09;;;32.62;34.41
62124;BME280;48110;47.532;19.078;2023-07-28T11:22:28;99810.50;;;33.50;33.40
62124;BME280;48110;47.532;19.078;2023-07-28T11:25:32;99815.78;;;34.38;31.76
62124;BME280;48110;47.532;19.078;2023-07-28T11:28:35;99822.41;;;34.25;32.33
62124;BME280;48110;47.532;19.078;2023-07-28T11:31:38;99814.94;;;34.04;32.90
62124;BME280;48110;47.532;19.078;2023-07-28T11:34:43;99815.84;;;33.96;33.10
62124;BME280;48110;47.532;19.078;2023-07-28T11:37:50;99812.50;;;35.26;31.03
62124;BME280;48110;47.532;19.078;2023-07-28T11:40:54;99809.78;;;35.90;30.21
62124;BME280;48110;47.532;19.078;2023-07-28T11:43:58;99812.47;;;36.14;29.70
62124;BME280;48110;47.532;19.078;2023-07-28T11:47:04;99823.66;;;35.66;30.07
62124;BME280;48110;47.532;19.078;2023-07-28T11:50:12;99807.44;;;34.79;30.89
62124;BME280;48110;47.532;19.078;2023-07-28T11:53:25;99801.38;;;36.42;30.28
62124;BME280;48110;47.532;19.078;2023-07-28T11:56:30;99800.22;;;35.23;30.37
62124;BME280;48110;47.532;19.078;2023-07-28T11:59:33;99804.47;;;35.33;30.48
62124;BME280;48110;47.532;19.078;2023-07-28T12:02:37;99802.72;;;37.42;28.06
62124;BME280;48110;47.532;19.078;2023-07-28T12:09:14;99789.34;;;36.07;28.83
62124;BME280;48110;47.532;19.078;2023-07-28T12:12:19;99786.22;;;38.61;26.63
62124;BME280;48110;47.532;19.078;2023-07-28T12:15:29;99788.81;;;38.51;26.12
62124;BME280;48110;47.532;19.078;2023-07-28T12:18:45;99778.63;;;36.77;28.44
62124;BME280;48110;47.532;19.078;2023-07-28T12:21:51;99775.78;;;37.55;28.21
62124;BME280;48110;47.532;19.078;2023-07-28T12:24:54;99780.63;;;36.05;29.23
62124;BME280;48110;47.532;19.078;2023-07-28T12:27:57;99785.22;;;36.88;28.57
62124;BME280;48110;47.532;19.078;2023-07-28T12:31:00;99782.38;;;38.69;27.15
62124;BME280;48110;47.532;19.078;2023-07-28T12:34:03;99783.09;;;39.12;26.37
62124;BME280;48110;47.532;19.078;2023-07-28T12:37:07;99770.44;;;40.34;24.46
62124;BME280;48110;47.532;19.078;2023-07-28T12:40:13;99770.72;;;39.59;25.29
62124;BME280;48110;47.532;19.078;2023-07-28T12:43:19;99765.16;;;39.59;25.18
62124;BME280;48110;47.532;19.078;2023-07-28T12:46:26;99760.47;;;39.92;25.24
62124;BME280;48110;47.532;19.078;2023-07-28T12:49:31;99766.19;;;40.91;25.28
62124;BME280;48110;47.532;19.078;2023-07-28T12:52:34;99761.12;;;39.26;24.94
62124;BME280;48110;47.532;19.078;2023-07-28T12:55:40;99766.53;;;41.37;23.10
62124;BME280;48110;47.532;19.078;2023-07-28T12:59:02;99767.44;;;42.84;21.70
62124;BME280;48110;47.532;19.078;2023-07-28T13:02:07;99763.16;;;41.79;22.96
62124;BME280;48110;47.532;19.078;2023-07-28T13:05:11;99768.94;;;43.49;21.70
62124;BME280;48110;47.532;19.078;2023-07-28T13:08:15;99767.72;;;43.57;21.11
62124;BME280;48110;47.532;19.078;2023-07-28T13:11:18;99763.66;;;39.65;23.85
62124;BME280;48110;47.532;19.078;2023-07-28T13:14:22;99763.38;;;40.44;23.05
62124;BME280;48110;47.532;19.078;2023-07-28T13:17:24;99758.09;;;41.99;21.90
62124;BME280;48110;47.532;19.078;2023-07-28T13:20:30;99761.94;;;40.57;22.28
62124;BME280;48110;47.532;19.078;2023-07-28T13:23:33;99752.66;;;42.87;20.66
62124;BME280;48110;47.532;19.078;2023-07-28T13:26:36;99759.66;;;41.17;21.72
62124;BME280;48110;47.532;19.078;2023-07-28T13:29:39;99755.22;;;36.43;26.46
62124;BME280;48110;47.532;19.078;2023-07-28T13:32:42;99745.69;;;37.92;25.69
62124;BME280;48110;47.532;19.078;2023-07-28T13:35:45;99760.41;;;37.96;25.37
62124;BME280;48110;47.532;19.078;2023-07-28T13:38:48;99750.97;;;37.43;26.10
62124;BME280;48110;47.532;19.078;2023-07-28T13:41:51;99754.03;;;35.08;28.86
62124;BME280;48110;47.532;19.078;2023-07-28T13:44:54;99747.16;;;31.98;33.43
62124;BME280;48110;47.532;19.078;2023-07-28T13:48:00;99747.28;;;31.16;35.16
62124;BME280;48110;47.532;19.078;2023-07-28T13:51:03;99742.09;;;30.66;36.13
62124;BME280;48110;47.532;19.078;2023-07-28T13:54:05;99745.53;;;29.83;38.23
62124;BME280;48110;47.532;19.078;2023-07-28T13:57:11;99744.34;;;29.53;39.13
62124;BME280;48110;47.532;19.078;2023-07-28T14:00:15;99738.59;;;29.76;39.40
62124;BME280;48110;47.532;19.078;2023-07-28T14:03:18;99738.94;;;29.97;39.14
62124;BME280;48110;47.532;19.078;2023-07-28T14:06:21;99743.91;;;29.95;39.28
62124;BME280;48110;47.532;19.078;2023-07-28T14:09:24;99737.16;;;29.57;39.22
62124;BME280;48110;47.532;19.078;2023-07-28T14:12:26;99728.78;;;29.75;39.33
62124;BME280;48110;47.532;19.078;2023-07-28T14:15:29;99723.53;;;29.16;39.96
62124;BME280;48110;47.532;19.078;2023-07-28T14:18:32;99737.44;;;28.78;40.77
62124;BME280;48110;47.532;19.078;2023-07-28T14:21:35;99731.53;;;30.20;38.80
62124;BME280;48110;47.532;19.078;2023-07-28T14:24:42;99740.09;;;32.61;34.54
62124;BME280;48110;47.532;19.078;2023-07-28T14:27:45;99730.19;;;33.98;32.65
62124;BME280;48110;47.532;19.078;2023-07-28T14:30:48;99732.09;;;34.87;30.95
62124;BME280;48110;47.532;19.078;2023-07-28T14:33:51;99728.16;;;35.37;30.07
62124;BME280;48110;47.532;19.078;2023-07-28T14:36:53;99715.69;;;32.68;33.91
62124;BME280;48110;47.532;19.078;2023-07-28T14:39:57;99722.03;;;31.79;36.03
62124;BME280;48110;47.532;19.078;2023-07-28T14:43:00;99704.81;;;30.48;37.94
62124;BME280;48110;47.532;19.078;2023-07-28T14:46:03;99697.34;;;30.40;38.52
62124;BME280;48110;47.532;19.078;2023-07-28T14:49:06;99699.41;;;30.34;36.51
62124;BME280;48110;47.532;19.078;2023-07-28T14:52:09;99691.53;;;30.41;37.98
62124;BME280;48110;47.532;19.078;2023-07-28T14:55:11;99688.53;;;30.99;37.30
62124;BME280;48110;47.532;19.078;2023-07-28T14:58:18;99692.16;;;31.43;36.61
62124;BME280;48110;47.532;19.078;2023-07-28T15:01:21;99688.44;;;30.65;38.46
62124;BME280;48110;47.532;19.078;2023-07-28T15:04:24;99685.41;;;30.75;40.17
62124;BME280;48110;47.532;19.078;2023-07-28T15:07:26;99677.38;;;30.79;40.38
62124;BME280;48110;47.532;19.078;2023-07-28T15:10:30;99667.72;;;30.90;40.04
62124;BME280;48110;47.532;19.078;2023-07-28T15:13:33;99672.47;;;31.06;37.89
62124;BME280;48110;47.532;19.078;2023-07-28T15:16:36;99670.88;;;31.48;36.98
62124;BME280;48110;47.532;19.078;2023-07-28T15:19:41;99671.31;;;32.02;36.09
62124;BME280;48110;47.532;19.078;2023-07-28T15:22:44;99666.84;;;33.65;33.78
62124;BME280;48110;47.532;19.078;2023-07-28T15:25:47;99678.25;;;35.42;31.08
62124;BME280;48110;47.532;19.078;2023-07-28T15:28:50;99668.63;;;35.36;30.79
62124;BME280;48110;47.532;19.078;2023-07-28T15:31:53;99660.66;;;34.82;31.49
62124;BME280;48110;47.532;19.078;2023-07-28T15:34:57;99665.78;;;33.78;32.83
62124;BME280;48110;47.532;19.078;2023-07-28T15:38:00;99673.47;;;32.81;34.71
62124;BME280;48110;47.532;19.078;2023-07-28T15:41:04;99684.28;;;35.08;31.37
62124;BME280;48110;47.532;19.078;2023-07-28T15:44:06;99693.63;;;36.27;29.80
62124;BME280;48110;47.532;19.078;2023-07-28T15:47:09;99683.25;;;35.12;31.00
62124;BME280;48110;47.532;19.078;2023-07-28T15:50:12;99690.63;;;36.16;30.36
62124;BME280;48110;47.532;19.078;2023-07-28T15:53:15;99694.59;;;35.11;30.37
62124;BME280;48110;47.532;19.078;2023-07-28T15:56:17;99694.41;;;33.98;32.72
62124;BME280;48110;47.532;19.078;2023-07-28T15:59:20;99692.69;;;33.31;33.12
62124;BME280;48110;47.532;19.078;2023-07-28T16:02:23;99704.53;;;31.15;36.31
62124;BME280;48110;47.532;19.078;2023-07-28T16:05:26;99703.03;;;30.21;38.10
62124;BME280;48110;47.532;19.078;2023-07-28T16:08:28;99708.84;;;29.39;40.01
62124;BME280;48110;47.532;19.078;2023-07-28T16:11:31;99708.03;;;29.25;40.75
62124;BME280;48110;47.532;19.078;2023-07-28T16:14:35;99720.22;;;29.05;41.27
62124;BME280;48110;47.532;19.078;2023-07-28T16:17:38;99728.63;;;28.81;41.90
62124;BME280;48110;47.532;19.078;2023-07-28T16:20:40;99784.00;;;28.55;43.56
62124;BME280;48110;47.532;19.078;2023-07-28T16:23:44;99821.25;;;27.33;53.68
62124;BME280;48110;47.532;19.078;2023-07-28T16:26:47;99853.34;;;22.23;100.00
62124;BME280;48110;47.532;19.078;2023-07-28T16:29:50;99852.72;;;20.47;100.00
62124;BME280;48110;47.532;19.078;2023-07-28T16:32:53;99879.50;;;20.25;100.00
62124;BME280;48110;47.532;19.078;2023-07-28T16:35:56;99894.06;;;19.96;100.00
62124;BME280;48110;47.532;19.078;2023-07-28T16:38:59;99872.09;;;19.47;100.00
62124;BME280;48110;47.532;19.078;2023-07-28T16:42:02;99846.00;;;19.60;100.00
62124;BME280;48110;47.532;19.078;2023-07-28T16:45:06;99822.50;;;19.55;100.00
62124;BME280;48110;47.532;19.078;2023-07-28T16:48:09;99806.28;;;19.67;100.00
62124;BME280;48110;47.532;19.078;2023-07-28T16:51:12;99836.41;;;19.80;100.00
62124;BME280;48110;47.532;19.078;2023-07-28T16:54:15;99826.72;;;19.79;100.00
62124;BME280;48110;47.532;19.078;2023-07-28T16:57:17;99844.44;;;19.92;100.00
62124;BME280;48110;47.532;19.078;2023-07-28T17:00:20;99848.25;;;19.79;100.00